createdAt,value
2016-12-27T00:02:22.520Z,1016.595
2016-12-27T00:05:22.571Z,1016.484
2016-12-27T00:08:21.466Z,1016.439
2016-12-27T00:11:20.657Z,1016.522
2016-12-27T00:14:19.951Z,1016.538
2016-12-27T00:17:19.715Z,1016.566
2016-12-27T00:20:19.760Z,1016.603
2016-12-27T00:23:18.879Z,1016.757
2016-12-27T00:26:18.905Z,1016.857
2016-12-27T00:29:18.662Z,1016.842
2016-12-27T00:32:18.412Z,1016.912
2016-12-27T00:35:17.622Z,1016.963
2016-12-27T00:38:17.433Z,1016.914
2016-12-27T00:41:17.657Z,1016.884
2016-12-27T00:44:17.347Z,1016.839
2016-12-27T00:47:17.036Z,1016.859
2016-12-27T00:50:16.910Z,1016.934
2016-12-27T00:53:16.673Z,1016.896
2016-12-27T00:56:16.767Z,1016.907
2016-12-27T00:59:15.973Z,1016.789
2016-12-27T01:02:15.666Z,1016.871
2016-12-27T01:05:15.503Z,1016.778
2016-12-27T01:08:15.249Z,1016.781
2016-12-27T01:11:14.977Z,1016.793
2016-12-27T01:14:14.803Z,1016.780
2016-12-27T01:17:14.575Z,1016.898
2016-12-27T01:20:14.253Z,1016.983
2016-12-27T01:23:14.419Z,1016.975
2016-12-27T01:26:14.481Z,1016.952
2016-12-27T01:32:13.842Z,1016.982
2016-12-27T01:35:13.597Z,1016.860
2016-12-27T01:38:13.310Z,1016.834
2016-12-27T01:41:13.046Z,1016.829
2016-12-27T01:44:12.758Z,1016.792
2016-12-27T01:47:12.811Z,1016.856
2016-12-27T01:50:12.532Z,1016.918
2016-12-27T01:53:12.739Z,1016.760
2016-12-27T01:56:11.752Z,1016.755
2016-12-27T01:59:11.952Z,1016.860
2016-12-27T02:02:11.765Z,1016.677
2016-12-27T02:05:11.086Z,1016.764
2016-12-27T02:08:11.078Z,1016.744
2016-12-27T02:11:11.250Z,1016.727
2016-12-27T02:14:10.670Z,1016.737
2016-12-27T02:17:10.405Z,1016.845
2016-12-27T02:20:10.118Z,1016.808
2016-12-27T02:26:09.544Z,1016.735
2016-12-27T02:29:09.694Z,1016.856
2016-12-27T02:32:09.327Z,1017.010
2016-12-27T02:35:09.105Z,1017.162
2016-12-27T02:38:09.214Z,1017.310
2016-12-27T02:41:08.386Z,1017.430
2016-12-27T02:44:08.135Z,1017.382
2016-12-27T02:47:08.202Z,1017.258
2016-12-27T02:50:08.418Z,1017.377
2016-12-27T02:53:07.733Z,1017.358
2016-12-27T02:56:06.950Z,1017.459
2016-12-27T02:59:07.100Z,1017.522
2016-12-27T03:02:06.856Z,1017.602
2016-12-27T03:05:06.640Z,1017.619
2016-12-27T03:08:06.360Z,1017.577
2016-12-27T03:11:06.200Z,1017.629
2016-12-27T03:14:05.914Z,1017.666
2016-12-27T03:17:05.164Z,1017.769
2016-12-27T03:20:04.854Z,1017.679
2016-12-27T03:23:04.951Z,1017.716
2016-12-27T03:26:04.281Z,1017.750
2016-12-27T03:29:03.512Z,1017.691
2016-12-27T03:32:03.816Z,1017.714
2016-12-27T03:35:03.927Z,1017.819
2016-12-27T03:38:03.668Z,1017.910
2016-12-27T03:41:03.357Z,1018.044
2016-12-27T03:44:03.173Z,1017.909
2016-12-27T03:47:03.250Z,1017.902
2016-12-27T03:50:03.304Z,1017.994
2016-12-27T03:53:02.630Z,1018.037
2016-12-27T03:56:02.775Z,1017.983
2016-12-27T03:59:02.928Z,1017.980
2016-12-27T04:02:02.197Z,1018.003
2016-12-27T04:05:02.438Z,1018.092
2016-12-27T04:08:02.245Z,1018.085
2016-12-27T04:11:01.956Z,1018.333
2016-12-27T04:14:01.284Z,1018.347
2016-12-27T04:17:00.994Z,1018.660
2016-12-27T04:20:01.055Z,1018.749
2016-12-27T04:23:01.147Z,1018.747
2016-12-27T04:26:00.474Z,1018.777
2016-12-27T04:29:00.152Z,1018.745
2016-12-27T04:31:59.957Z,1018.731
2016-12-27T04:34:59.989Z,1018.871
2016-12-27T04:37:59.706Z,1018.889
2016-12-27T04:40:59.441Z,1018.911
2016-12-27T04:43:59.588Z,1018.887
2016-12-27T04:46:59.200Z,1018.848
2016-12-27T04:49:58.914Z,1018.920
2016-12-27T04:52:58.731Z,1018.912
2016-12-27T04:55:58.676Z,1018.974
2016-12-27T04:58:57.977Z,1019.076
2016-12-27T05:01:57.821Z,1019.106
2016-12-27T05:04:57.924Z,1019.227
2016-12-27T05:07:57.706Z,1019.223
2016-12-27T05:10:57.358Z,1019.335
2016-12-27T05:13:57.075Z,1019.354
2016-12-27T05:16:56.795Z,1019.426
2016-12-27T05:19:56.815Z,1019.303
2016-12-27T05:22:55.997Z,1019.351
2016-12-27T05:25:55.761Z,1019.381
2016-12-27T05:28:55.499Z,1019.402
2016-12-27T05:31:55.393Z,1019.449
2016-12-27T05:34:55.454Z,1019.420
2016-12-27T05:37:55.644Z,1019.477
2016-12-27T05:40:54.801Z,1019.531
2016-12-27T05:43:54.081Z,1019.649
2016-12-27T05:46:53.871Z,1019.691
2016-12-27T05:49:53.942Z,1019.690
2016-12-27T05:52:53.695Z,1019.722
2016-12-27T05:58:53.359Z,1019.855
2016-12-27T06:01:53.062Z,1019.905
2016-12-27T06:04:53.201Z,1019.952
2016-12-27T06:07:53.303Z,1020.039
2016-12-27T06:10:53.337Z,1020.051
2016-12-27T06:13:53.012Z,1020.006
2016-12-27T06:16:53.173Z,1020.064
2016-12-27T06:19:53.335Z,1020.157
2016-12-27T06:22:53.398Z,1020.239
2016-12-27T06:25:53.598Z,1020.191
2016-12-27T06:28:53.685Z,1020.345
2016-12-27T06:34:53.029Z,1020.452
2016-12-27T06:37:52.704Z,1020.542
2016-12-27T06:40:52.659Z,1020.629
2016-12-27T06:43:51.809Z,1020.702
2016-12-27T06:46:51.638Z,1020.707
2016-12-27T06:52:51.528Z,1020.917
2016-12-27T06:55:51.252Z,1020.985
2016-12-27T06:58:51.410Z,1021.023
2016-12-27T07:01:51.163Z,1021.174
2016-12-27T07:04:51.426Z,1021.291
2016-12-27T07:07:51.007Z,1021.335
2016-12-27T07:10:50.797Z,1021.504
2016-12-27T07:13:49.995Z,1021.669
2016-12-27T07:16:49.756Z,1021.604
2016-12-27T07:19:49.018Z,1021.556
2016-12-27T07:22:48.391Z,1021.521
2016-12-27T07:25:47.651Z,1021.528
2016-12-27T07:28:47.828Z,1021.618
2016-12-27T07:31:47.622Z,1021.671
2016-12-27T07:34:47.884Z,1021.709
2016-12-27T07:37:48.130Z,1021.637
2016-12-27T07:40:47.689Z,1021.694
2016-12-27T07:43:47.921Z,1021.934
2016-12-27T07:46:47.731Z,1022.049
2016-12-27T07:49:47.513Z,1022.206
2016-12-27T07:52:47.498Z,1022.161
2016-12-27T07:55:46.816Z,1022.083
2016-12-27T07:58:46.112Z,1022.165
2016-12-27T08:01:45.861Z,1022.142
2016-12-27T08:04:45.668Z,1022.135
2016-12-27T08:07:44.865Z,1022.229
2016-12-27T08:10:44.768Z,1022.364
2016-12-27T08:13:43.862Z,1022.475
2016-12-27T08:16:43.605Z,1022.532
2016-12-27T08:19:43.842Z,1022.683
2016-12-27T08:22:43.596Z,1022.747
2016-12-27T08:25:43.391Z,1022.748
2016-12-27T08:28:43.543Z,1022.687
2016-12-27T08:31:43.241Z,1022.738
2016-12-27T08:34:43.414Z,1022.775
2016-12-27T08:37:43.131Z,1022.713
2016-12-27T08:40:42.893Z,1022.735
2016-12-27T08:43:42.572Z,1022.874
2016-12-27T08:46:42.714Z,1023.081
2016-12-27T08:49:42.922Z,1023.204
2016-12-27T08:52:42.683Z,1023.299
2016-12-27T08:55:42.391Z,1023.376
2016-12-27T08:58:42.140Z,1023.455
2016-12-27T09:01:41.809Z,1023.523
2016-12-27T09:04:41.902Z,1023.609
2016-12-27T09:07:41.644Z,1023.969
2016-12-27T09:10:40.879Z,1023.951
2016-12-27T09:13:40.627Z,1023.981
2016-12-27T09:16:40.361Z,1023.890
2016-12-27T09:22:39.822Z,1024.042
2016-12-27T09:25:39.044Z,1024.247
2016-12-27T09:28:39.262Z,1024.340
2016-12-27T09:31:38.988Z,1024.437
2016-12-27T09:34:38.789Z,1024.465
2016-12-27T09:37:38.519Z,1024.614
2016-12-27T09:40:38.247Z,1024.680
2016-12-27T09:43:37.919Z,1024.799
2016-12-27T09:46:38.107Z,1024.931
2016-12-27T09:49:37.456Z,1024.821
2016-12-27T09:52:37.142Z,1024.899
2016-12-27T09:55:36.627Z,1024.960
2016-12-27T09:58:36.847Z,1025.017
2016-12-27T10:01:37.122Z,1025.109
2016-12-27T10:04:36.919Z,1025.135
2016-12-27T10:10:35.899Z,1025.298
2016-12-27T10:13:35.610Z,1025.336
2016-12-27T10:16:35.364Z,1025.282
2016-12-27T10:19:35.219Z,1025.250
2016-12-27T10:22:34.846Z,1025.321
2016-12-27T10:25:34.559Z,1025.404
2016-12-27T10:28:34.626Z,1025.498
2016-12-27T10:31:34.395Z,1025.622
2016-12-27T10:34:34.361Z,1025.715
2016-12-27T10:37:34.081Z,1025.885
2016-12-27T10:40:33.822Z,1025.977
2016-12-27T10:43:33.936Z,1025.993
2016-12-27T10:46:33.701Z,1026.021
2016-12-27T10:49:33.925Z,1025.927
2016-12-27T10:52:33.236Z,1026.040
2016-12-27T10:55:32.439Z,1026.190
2016-12-27T10:58:31.817Z,1026.199
2016-12-27T11:01:32.076Z,1026.251
2016-12-27T11:04:31.779Z,1026.390
2016-12-27T11:07:31.975Z,1026.481
2016-12-27T11:10:32.128Z,1026.592
2016-12-27T11:13:31.537Z,1026.643
2016-12-27T11:16:31.294Z,1026.799
2016-12-27T11:19:31.075Z,1026.786
2016-12-27T11:22:30.889Z,1026.884
2016-12-27T11:25:30.802Z,1026.957
2016-12-27T11:28:30.603Z,1027.065
2016-12-27T11:31:30.150Z,1027.108
2016-12-27T11:34:30.225Z,1027.185
2016-12-27T11:37:29.498Z,1027.167
2016-12-27T11:40:29.003Z,1027.266
2016-12-27T11:43:28.795Z,1027.399
2016-12-27T11:46:28.303Z,1027.420
2016-12-27T11:49:27.952Z,1027.587
2016-12-27T11:52:27.561Z,1027.818
2016-12-27T11:55:26.960Z,1027.906
2016-12-27T11:58:26.543Z,1028.000
2016-12-27T12:01:26.663Z,1028.064
2016-12-27T12:04:27.480Z,1028.072
2016-12-27T12:07:26.186Z,1028.068
2016-12-27T12:10:26.011Z,1028.100
2016-12-27T12:13:25.851Z,1028.105
2016-12-27T12:16:25.994Z,1028.206
2016-12-27T12:19:25.341Z,1028.274
2016-12-27T12:22:25.162Z,1028.348
2016-12-27T12:25:25.378Z,1028.405
2016-12-27T12:28:25.685Z,1028.403
2016-12-27T12:31:25.040Z,1028.529
2016-12-27T12:34:25.140Z,1028.566
2016-12-27T12:37:24.893Z,1028.607
2016-12-27T12:40:24.389Z,1028.578
2016-12-27T12:43:24.211Z,1028.523
2016-12-27T12:46:24.187Z,1028.694
2016-12-27T12:49:23.604Z,1028.695
2016-12-27T12:52:22.701Z,1028.637
2016-12-27T12:55:22.885Z,1028.719
2016-12-27T12:58:23.023Z,1028.779
2016-12-27T13:01:22.281Z,1028.823
2016-12-27T13:04:21.949Z,1028.862
2016-12-27T13:07:21.501Z,1028.795
2016-12-27T13:10:21.599Z,1028.885
2016-12-27T13:16:21.184Z,1029.013
2016-12-27T13:19:20.888Z,1028.977
2016-12-27T13:22:20.765Z,1028.997
2016-12-27T13:25:20.746Z,1029.117
2016-12-27T13:28:20.415Z,1029.117
2016-12-27T13:31:20.699Z,1029.209
2016-12-27T13:34:20.415Z,1029.204
2016-12-27T13:37:19.264Z,1029.269
2016-12-27T13:40:19.354Z,1029.335
2016-12-27T13:43:18.639Z,1029.406
2016-12-27T13:46:18.405Z,1029.463
2016-12-27T13:49:18.206Z,1029.458
2016-12-27T13:52:18.042Z,1029.547
2016-12-27T13:55:17.981Z,1029.623
2016-12-27T13:58:18.281Z,1029.694
2016-12-27T14:01:18.173Z,1029.769
2016-12-27T14:04:17.980Z,1029.873
2016-12-27T14:07:17.983Z,1029.910
2016-12-27T14:10:17.854Z,1029.974
2016-12-27T14:16:17.859Z,1030.022
2016-12-27T14:19:17.694Z,1030.048
2016-12-27T14:22:17.421Z,1030.135
2016-12-27T14:25:17.006Z,1030.134
2016-12-27T14:28:16.843Z,1030.258
2016-12-27T14:31:17.062Z,1030.308
2016-12-27T14:34:17.159Z,1030.413
2016-12-27T14:37:17.002Z,1030.402
2016-12-27T14:40:17.133Z,1030.484
2016-12-27T14:43:16.940Z,1030.511
2016-12-27T14:46:16.335Z,1030.507
2016-12-27T14:49:15.720Z,1030.558
2016-12-27T14:52:15.507Z,1030.593
2016-12-27T14:55:15.296Z,1030.631
2016-12-27T14:58:15.028Z,1030.702
2016-12-27T15:01:14.398Z,1030.738
2016-12-27T15:04:14.193Z,1030.744
2016-12-27T15:07:13.975Z,1030.841
2016-12-27T15:10:13.871Z,1030.884
2016-12-27T15:13:14.023Z,1030.939
2016-12-27T15:16:14.366Z,1030.982
2016-12-27T15:19:14.693Z,1030.998
2016-12-27T15:22:14.804Z,1030.978
2016-12-27T15:25:14.697Z,1031.047
2016-12-27T15:28:14.696Z,1031.029
2016-12-27T15:31:14.906Z,1031.043
2016-12-27T15:34:14.771Z,1031.110
2016-12-27T15:37:14.556Z,1031.159
2016-12-27T15:40:14.769Z,1031.259
2016-12-27T15:43:14.972Z,1031.295
2016-12-27T15:46:15.130Z,1031.333
2016-12-27T15:49:15.156Z,1031.343
2016-12-27T15:52:14.988Z,1031.345
2016-12-27T15:55:14.828Z,1031.371
2016-12-27T15:58:14.139Z,1031.416
2016-12-27T16:01:14.087Z,1031.442
2016-12-27T16:04:13.935Z,1031.517
2016-12-27T16:07:13.778Z,1031.572
2016-12-27T16:10:13.469Z,1031.659
2016-12-27T16:13:12.708Z,1031.684
2016-12-27T16:16:12.608Z,1031.732
2016-12-27T16:19:12.886Z,1031.798
2016-12-27T16:22:12.980Z,1031.818
2016-12-27T16:25:12.761Z,1031.816
2016-12-27T16:28:12.629Z,1031.880
2016-12-27T16:31:12.762Z,1031.835
2016-12-27T16:34:12.515Z,1031.855
2016-12-27T16:37:12.287Z,1031.839
2016-12-27T16:40:12.447Z,1031.901
2016-12-27T16:43:12.232Z,1031.952
2016-12-27T16:46:11.872Z,1032.035
2016-12-27T16:52:11.253Z,1032.162
2016-12-27T16:55:10.557Z,1032.250
2016-12-27T16:58:10.645Z,1032.346
2016-12-27T17:01:10.372Z,1032.422
2016-12-27T17:04:10.420Z,1032.442
2016-12-27T17:10:09.989Z,1032.389
2016-12-27T17:13:10.145Z,1032.376
2016-12-27T17:16:09.400Z,1032.353
2016-12-27T17:19:09.031Z,1032.402
2016-12-27T17:22:08.943Z,1032.412
2016-12-27T17:25:08.223Z,1032.461
2016-12-27T17:28:08.100Z,1032.432
2016-12-27T17:31:07.886Z,1032.444
2016-12-27T17:34:07.571Z,1032.525
2016-12-27T17:37:07.352Z,1032.571
2016-12-27T17:40:07.377Z,1032.573
2016-12-27T17:43:07.188Z,1032.573
2016-12-27T17:46:07.019Z,1032.564
2016-12-27T17:49:07.288Z,1032.605
2016-12-27T17:52:07.577Z,1032.596
2016-12-27T17:55:07.103Z,1032.612
2016-12-27T17:58:07.508Z,1032.680
2016-12-27T18:01:07.638Z,1032.674
2016-12-27T18:04:06.968Z,1032.791
2016-12-27T18:07:06.820Z,1032.866
2016-12-27T18:10:06.726Z,1032.902
2016-12-27T18:13:06.037Z,1032.849
2016-12-27T18:16:06.162Z,1032.870
2016-12-27T18:19:05.470Z,1032.953
2016-12-27T18:22:05.361Z,1032.997
2016-12-27T18:25:05.601Z,1033.061
2016-12-27T18:28:05.823Z,1033.102
2016-12-27T18:31:05.129Z,1033.083
2016-12-27T18:34:05.019Z,1033.056
2016-12-27T18:37:04.396Z,1033.053
2016-12-27T18:40:03.683Z,1033.023
2016-12-27T18:43:03.365Z,1033.008
2016-12-27T18:46:03.549Z,1033.015
2016-12-27T18:49:01.999Z,1033.059
2016-12-27T18:55:02.149Z,1033.082
2016-12-27T18:58:02.372Z,1032.989
2016-12-27T19:01:02.149Z,1033.107
2016-12-27T19:04:01.560Z,1033.143
2016-12-27T19:07:01.820Z,1033.179
2016-12-27T19:10:01.227Z,1033.182
2016-12-27T19:13:01.501Z,1033.197
2016-12-27T19:16:01.237Z,1033.183
2016-12-27T19:19:01.112Z,1033.150
2016-12-27T19:22:00.397Z,1033.174
2016-12-27T19:25:00.589Z,1033.244
2016-12-27T19:28:00.122Z,1033.252
2016-12-27T19:31:00.041Z,1033.236
2016-12-27T19:33:59.534Z,1033.229
2016-12-27T19:36:58.951Z,1033.187
2016-12-27T19:39:58.691Z,1033.110
2016-12-27T19:42:58.062Z,1033.097
2016-12-27T19:45:57.859Z,1033.098
2016-12-27T19:48:57.972Z,1033.163
2016-12-27T19:51:58.176Z,1033.181
2016-12-27T19:54:58.044Z,1033.215
2016-12-27T19:57:57.926Z,1033.228
2016-12-27T20:00:57.847Z,1033.369
2016-12-27T20:03:57.611Z,1033.391
2016-12-27T20:06:57.793Z,1033.403
2016-12-27T20:09:56.507Z,1033.435
2016-12-27T20:12:56.248Z,1033.513
2016-12-27T20:15:56.460Z,1033.524
2016-12-27T20:18:56.641Z,1033.410
2016-12-27T20:21:56.429Z,1033.474
2016-12-27T20:24:55.928Z,1033.529
2016-12-27T20:27:55.140Z,1033.587
2016-12-27T20:30:55.279Z,1033.639
2016-12-27T20:33:55.103Z,1033.595
2016-12-27T20:36:54.924Z,1033.614
2016-12-27T20:39:54.637Z,1033.678
2016-12-27T20:42:54.425Z,1033.714
2016-12-27T20:45:54.199Z,1033.756
2016-12-27T20:48:54.280Z,1033.754
2016-12-27T20:51:53.990Z,1033.754
2016-12-27T20:54:53.803Z,1033.686
2016-12-27T20:57:53.609Z,1033.661
2016-12-27T21:00:53.900Z,1033.723
2016-12-27T21:03:53.539Z,1033.772
2016-12-27T21:06:53.507Z,1033.717
2016-12-27T21:09:53.737Z,1033.628
2016-12-27T21:12:53.540Z,1033.504
2016-12-27T21:15:53.797Z,1033.566
2016-12-27T21:18:53.497Z,1033.586
2016-12-27T21:21:53.241Z,1033.650
2016-12-27T21:24:53.274Z,1033.684
2016-12-27T21:27:53.477Z,1033.744
2016-12-27T21:30:52.930Z,1033.766
2016-12-27T21:33:52.749Z,1033.848
2016-12-27T21:36:53.001Z,1033.862
2016-12-27T21:39:52.616Z,1033.863
2016-12-27T21:42:52.546Z,1033.964
2016-12-27T21:45:52.365Z,1033.954
2016-12-27T21:48:52.109Z,1033.948
2016-12-27T21:51:51.876Z,1033.857
2016-12-27T21:54:51.990Z,1033.893
2016-12-27T21:57:52.081Z,1033.947
2016-12-27T22:00:51.919Z,1033.898
2016-12-27T22:03:51.819Z,1033.960
2016-12-27T22:06:46.557Z,1034.094
2016-12-27T22:09:51.423Z,1034.190
2016-12-27T22:12:51.189Z,1034.272
2016-12-27T22:15:50.834Z,1034.292
2016-12-27T22:18:50.041Z,1034.358
2016-12-27T22:21:50.181Z,1034.367
2016-12-27T22:24:49.511Z,1034.318
2016-12-27T22:27:48.950Z,1034.274
2016-12-27T22:30:48.765Z,1034.202
2016-12-27T22:33:48.147Z,1034.264
2016-12-27T22:36:47.957Z,1034.315
2016-12-27T22:39:48.027Z,1034.297
2016-12-27T22:42:47.263Z,1034.367
2016-12-27T22:45:47.528Z,1034.440
2016-12-27T22:48:47.373Z,1034.439
2016-12-27T22:51:46.791Z,1034.465
2016-12-27T22:54:46.044Z,1034.529
2016-12-27T22:57:45.871Z,1034.547
2016-12-27T23:00:45.660Z,1034.608
2016-12-27T23:03:45.789Z,1034.689
2016-12-27T23:06:45.166Z,1034.659
2016-12-27T23:09:44.965Z,1034.625
2016-12-27T23:12:44.712Z,1034.652
2016-12-27T23:15:43.421Z,1034.705
2016-12-27T23:18:43.064Z,1034.736
2016-12-27T23:21:42.866Z,1034.739
2016-12-27T23:24:42.322Z,1034.770
2016-12-27T23:27:42.383Z,1034.877
2016-12-27T23:30:42.246Z,1034.899
2016-12-27T23:33:42.069Z,1034.827
2016-12-27T23:36:41.878Z,1034.895
2016-12-27T23:39:42.146Z,1034.902
2016-12-27T23:42:42.381Z,1034.866
2016-12-27T23:45:42.549Z,1034.939
2016-12-27T23:48:41.765Z,1034.981
2016-12-27T23:51:42.023Z,1034.993
2016-12-27T23:54:42.374Z,1035.040
2016-12-27T23:57:42.017Z,1034.995
